sensor_id;sensor_type;location;lat;lon;timestamp;P1;durP1;ratioP1;P2;durP2;ratioP2
33022;SDS011;19390;51.460;5.710;2022-10-22T00:00:02;15.35;;;8.80;;
33022;SDS011;19390;51.460;5.710;2022-10-22T00:02:31;12.05;;;7.80;;
33022;SDS011;19390;51.460;5.710;2022-10-22T00:04:56;13.40;;;9.40;;
33022;SDS011;19390;51.460;5.710;2022-10-22T00:07:22;12.43;;;8.57;;
33022;SDS011;19390;51.460;5.710;2022-10-22T00:09:48;13.75;;;9.45;;
33022;SDS011;19390;51.460;5.710;2022-10-22T00:12:14;14.43;;;8.65;;
33022;SDS011;19390;51.460;5.710;2022-10-22T00:14:41;20.67;;;9.20;;
33022;SDS011;19390;51.460;5.710;2022-10-22T00:17:07;15.88;;;9.00;;
33022;SDS011;19390;51.460;5.710;2022-10-22T00:19:32;18.30;;;9.30;;
33022;SDS011;19390;51.460;5.710;2022-10-22T00:21:58;14.10;;;9.05;;
33022;SDS011;19390;51.460;5.710;2022-10-22T00:24:24;15.82;;;9.40;;
33022;SDS011;19390;51.460;5.710;2022-10-22T00:26:50;16.40;;;8.73;;
33022;SDS011;19390;51.460;5.710;2022-10-22T00:29:16;14.02;;;7.82;;
33022;SDS011;19390;51.460;5.710;2022-10-22T00:31:44;13.27;;;7.00;;
33022;SDS011;19390;51.460;5.710;2022-10-22T00:34:14;10.63;;;7.50;;
33022;SDS011;19390;51.460;5.710;2022-10-22T00:36:41;18.20;;;8.00;;
33022;SDS011;19390;51.460;5.710;2022-10-22T00:39:06;10.60;;;7.32;;
33022;SDS011;19390;51.460;5.710;2022-10-22T00:41:32;13.27;;;7.47;;
33022;SDS011;19390;51.460;5.710;2022-10-22T00:44:02;16.63;;;8.88;;
33022;SDS011;19390;51.460;5.710;2022-10-22T00:46:29;13.90;;;7.85;;
33022;SDS011;19390;51.460;5.710;2022-10-22T00:48:55;10.40;;;7.97;;
33022;SDS011;19390;51.460;5.710;2022-10-22T00:51:26;13.65;;;9.10;;
33022;SDS011;19390;51.460;5.710;2022-10-22T00:53:58;11.73;;;8.10;;
33022;SDS011;19390;51.460;5.710;2022-10-22T00:56:27;16.35;;;8.98;;
33022;SDS011;19390;51.460;5.710;2022-10-22T00:58:54;14.50;;;8.45;;
33022;SDS011;19390;51.460;5.710;2022-10-22T01:01:26;14.73;;;8.48;;
33022;SDS011;19390;51.460;5.710;2022-10-22T01:03:54;19.30;;;10.13;;
33022;SDS011;19390;51.460;5.710;2022-10-22T01:06:24;14.52;;;9.73;;
33022;SDS011;19390;51.460;5.710;2022-10-22T01:09:11;12.95;;;9.88;;
33022;SDS011;19390;51.460;5.710;2022-10-22T01:12:04;17.67;;;10.93;;
33022;SDS011;19390;51.460;5.710;2022-10-22T01:17:17;14.73;;;9.40;;
33022;SDS011;19390;51.460;5.710;2022-10-22T01:20:12;13.80;;;9.40;;
33022;SDS011;19390;51.460;5.710;2022-10-22T01:31:17;15.10;;;10.55;;
33022;SDS011;19390;51.460;5.710;2022-10-22T01:33:46;19.55;;;9.60;;
33022;SDS011;19390;51.460;5.710;2022-10-22T01:36:13;17.42;;;9.90;;
33022;SDS011;19390;51.460;5.710;2022-10-22T01:38:40;18.05;;;11.23;;
33022;SDS011;19390;51.460;5.710;2022-10-22T01:41:07;15.88;;;8.52;;
33022;SDS011;19390;51.460;5.710;2022-10-22T01:43:33;14.32;;;9.80;;
33022;SDS011;19390;51.460;5.710;2022-10-22T01:45:59;18.60;;;9.60;;
33022;SDS011;19390;51.460;5.710;2022-10-22T01:48:44;18.55;;;10.18;;
33022;SDS011;19390;51.460;5.710;2022-10-22T01:51:51;15.65;;;10.10;;
33022;SDS011;19390;51.460;5.710;2022-10-22T01:54:30;20.15;;;10.55;;
33022;SDS011;19390;51.460;5.710;2022-10-22T01:57:25;13.93;;;10.23;;
33022;SDS011;19390;51.460;5.710;2022-10-22T02:00:12;19.80;;;10.43;;
33022;SDS011;19390;51.460;5.710;2022-10-22T02:03:01;16.05;;;9.13;;
33022;SDS011;19390;51.460;5.710;2022-10-22T02:05:36;15.25;;;9.85;;
33022;SDS011;19390;51.460;5.710;2022-10-22T02:08:39;23.55;;;9.27;;
33022;SDS011;19390;51.460;5.710;2022-10-22T02:10:59;15.88;;;10.25;;
33022;SDS011;19390;51.460;5.710;2022-10-22T02:13:27;17.27;;;10.30;;
33022;SDS011;19390;51.460;5.710;2022-10-22T02:15:58;16.17;;;9.48;;
33022;SDS011;19390;51.460;5.710;2022-10-22T02:18:28;19.27;;;10.73;;
33022;SDS011;19390;51.460;5.710;2022-10-22T02:20:56;13.15;;;8.57;;
33022;SDS011;19390;51.460;5.710;2022-10-22T02:23:24;14.10;;;9.10;;
33022;SDS011;19390;51.460;5.710;2022-10-22T02:25:52;17.02;;;10.23;;
33022;SDS011;19390;51.460;5.710;2022-10-22T02:30:54;19.00;;;8.98;;
33022;SDS011;19390;51.460;5.710;2022-10-22T02:33:27;15.55;;;8.40;;
33022;SDS011;19390;51.460;5.710;2022-10-22T02:35:55;20.73;;;10.57;;
33022;SDS011;19390;51.460;5.710;2022-10-22T02:38:24;17.52;;;9.93;;
33022;SDS011;19390;51.460;5.710;2022-10-22T02:40:51;18.30;;;8.95;;
33022;SDS011;19390;51.460;5.710;2022-10-22T02:43:17;18.65;;;10.70;;
33022;SDS011;19390;51.460;5.710;2022-10-22T02:45:43;18.58;;;9.35;;
33022;SDS011;19390;51.460;5.710;2022-10-22T02:48:10;23.13;;;12.02;;
33022;SDS011;19390;51.460;5.710;2022-10-22T02:50:35;12.90;;;9.23;;
33022;SDS011;19390;51.460;5.710;2022-10-22T02:53:02;15.82;;;9.00;;
33022;SDS011;19390;51.460;5.710;2022-10-22T02:55:27;21.02;;;9.68;;
33022;SDS011;19390;51.460;5.710;2022-10-22T02:57:53;16.98;;;8.80;;
33022;SDS011;19390;51.460;5.710;2022-10-22T03:00:19;18.02;;;8.52;;
33022;SDS011;19390;51.460;5.710;2022-10-22T03:02:45;17.48;;;9.90;;
33022;SDS011;19390;51.460;5.710;2022-10-22T03:05:10;14.00;;;8.30;;
33022;SDS011;19390;51.460;5.710;2022-10-22T03:07:36;13.88;;;9.55;;
33022;SDS011;19390;51.460;5.710;2022-10-22T03:10:02;19.80;;;11.23;;
33022;SDS011;19390;51.460;5.710;2022-10-22T03:12:28;16.90;;;11.65;;
33022;SDS011;19390;51.460;5.710;2022-10-22T03:14:54;20.80;;;11.52;;
33022;SDS011;19390;51.460;5.710;2022-10-22T03:17:19;17.35;;;10.90;;
33022;SDS011;19390;51.460;5.710;2022-10-22T03:19:45;17.90;;;9.43;;
33022;SDS011;19390;51.460;5.710;2022-10-22T03:22:15;14.52;;;9.25;;
33022;SDS011;19390;51.460;5.710;2022-10-22T03:24:44;17.23;;;9.90;;
33022;SDS011;19390;51.460;5.710;2022-10-22T03:27:13;24.05;;;13.07;;
33022;SDS011;19390;51.460;5.710;2022-10-22T03:29:40;23.30;;;11.25;;
33022;SDS011;19390;51.460;5.710;2022-10-22T03:32:06;17.33;;;11.10;;
33022;SDS011;19390;51.460;5.710;2022-10-22T03:34:32;21.17;;;10.02;;
33022;SDS011;19390;51.460;5.710;2022-10-22T03:36:58;16.85;;;10.85;;
33022;SDS011;19390;51.460;5.710;2022-10-22T03:39:26;20.15;;;10.98;;
33022;SDS011;19390;51.460;5.710;2022-10-22T03:41:53;21.13;;;11.00;;
33022;SDS011;19390;51.460;5.710;2022-10-22T03:44:19;17.83;;;8.85;;
33022;SDS011;19390;51.460;5.710;2022-10-22T03:46:47;16.38;;;8.80;;
33022;SDS011;19390;51.460;5.710;2022-10-22T03:49:13;25.27;;;12.98;;
33022;SDS011;19390;51.460;5.710;2022-10-22T03:51:39;17.98;;;9.55;;
33022;SDS011;19390;51.460;5.710;2022-10-22T03:54:04;15.70;;;10.35;;
33022;SDS011;19390;51.460;5.710;2022-10-22T03:56:30;19.70;;;11.13;;
33022;SDS011;19390;51.460;5.710;2022-10-22T03:58:57;19.60;;;10.48;;
33022;SDS011;19390;51.460;5.710;2022-10-22T04:01:24;21.40;;;11.50;;
33022;SDS011;19390;51.460;5.710;2022-10-22T04:03:50;15.18;;;10.68;;
33022;SDS011;19390;51.460;5.710;2022-10-22T04:06:16;18.17;;;10.55;;
33022;SDS011;19390;51.460;5.710;2022-10-22T04:08:42;18.38;;;10.07;;
33022;SDS011;19390;51.460;5.710;2022-10-22T04:11:09;17.73;;;10.23;;
33022;SDS011;19390;51.460;5.710;2022-10-22T04:13:35;26.17;;;12.43;;
33022;SDS011;19390;51.460;5.710;2022-10-22T04:16:08;16.30;;;10.05;;
33022;SDS011;19390;51.460;5.710;2022-10-22T04:18:35;17.40;;;10.20;;
33022;SDS011;19390;51.460;5.710;2022-10-22T04:21:02;18.55;;;11.38;;
33022;SDS011;19390;51.460;5.710;2022-10-22T04:23:28;17.38;;;10.07;;
33022;SDS011;19390;51.460;5.710;2022-10-22T04:25:57;17.88;;;8.93;;
33022;SDS011;19390;51.460;5.710;2022-10-22T04:28:24;24.17;;;10.68;;
33022;SDS011;19390;51.460;5.710;2022-10-22T04:30:50;16.98;;;9.73;;
33022;SDS011;19390;51.460;5.710;2022-10-22T04:33:15;25.75;;;11.90;;
33022;SDS011;19390;51.460;5.710;2022-10-22T04:35:41;13.02;;;8.32;;
33022;SDS011;19390;51.460;5.710;2022-10-22T04:38:06;15.23;;;9.25;;
33022;SDS011;19390;51.460;5.710;2022-10-22T04:40:32;19.55;;;9.90;;
33022;SDS011;19390;51.460;5.710;2022-10-22T04:42:58;17.55;;;11.15;;
33022;SDS011;19390;51.460;5.710;2022-10-22T04:45:23;17.75;;;8.75;;
33022;SDS011;19390;51.460;5.710;2022-10-22T04:47:49;20.42;;;11.13;;
33022;SDS011;19390;51.460;5.710;2022-10-22T04:50:14;14.73;;;9.27;;
33022;SDS011;19390;51.460;5.710;2022-10-22T04:52:40;17.08;;;10.32;;
33022;SDS011;19390;51.460;5.710;2022-10-22T04:55:06;18.60;;;9.52;;
33022;SDS011;19390;51.460;5.710;2022-10-22T04:57:32;24.17;;;9.63;;
33022;SDS011;19390;51.460;5.710;2022-10-22T04:59:57;18.08;;;9.82;;
33022;SDS011;19390;51.460;5.710;2022-10-22T05:02:23;22.13;;;9.82;;
33022;SDS011;19390;51.460;5.710;2022-10-22T05:04:48;17.30;;;8.57;;
33022;SDS011;19390;51.460;5.710;2022-10-22T05:07:14;21.80;;;11.57;;
33022;SDS011;19390;51.460;5.710;2022-10-22T05:09:40;18.83;;;9.88;;
33022;SDS011;19390;51.460;5.710;2022-10-22T05:12:05;19.88;;;9.40;;
33022;SDS011;19390;51.460;5.710;2022-10-22T05:14:31;14.90;;;8.88;;
33022;SDS011;19390;51.460;5.710;2022-10-22T05:16:57;19.45;;;10.45;;
33022;SDS011;19390;51.460;5.710;2022-10-22T05:19:24;22.27;;;9.40;;
33022;SDS011;19390;51.460;5.710;2022-10-22T05:21:55;16.33;;;8.38;;
33022;SDS011;19390;51.460;5.710;2022-10-22T05:24:22;16.10;;;8.57;;
33022;SDS011;19390;51.460;5.710;2022-10-22T05:26:49;16.60;;;8.82;;
33022;SDS011;19390;51.460;5.710;2022-10-22T05:29:15;20.20;;;10.02;;
33022;SDS011;19390;51.460;5.710;2022-10-22T05:31:41;16.98;;;9.25;;
33022;SDS011;19390;51.460;5.710;2022-10-22T05:34:07;15.43;;;8.20;;
33022;SDS011;19390;51.460;5.710;2022-10-22T05:36:32;19.70;;;9.20;;
33022;SDS011;19390;51.460;5.710;2022-10-22T05:38:58;18.95;;;9.80;;
33022;SDS011;19390;51.460;5.710;2022-10-22T05:41:25;14.80;;;8.15;;
33022;SDS011;19390;51.460;5.710;2022-10-22T05:43:53;16.33;;;8.07;;
33022;SDS011;19390;51.460;5.710;2022-10-22T05:46:20;14.25;;;7.90;;
33022;SDS011;19390;51.460;5.710;2022-10-22T05:49:05;18.98;;;9.38;;
33022;SDS011;19390;51.460;5.710;2022-10-22T05:51:32;11.90;;;8.00;;
33022;SDS011;19390;51.460;5.710;2022-10-22T05:54:00;17.02;;;8.80;;
33022;SDS011;19390;51.460;5.710;2022-10-22T05:56:27;17.50;;;8.55;;
33022;SDS011;19390;51.460;5.710;2022-10-22T05:58:54;19.65;;;9.82;;
33022;SDS011;19390;51.460;5.710;2022-10-22T06:01:21;17.45;;;9.80;;
33022;SDS011;19390;51.460;5.710;2022-10-22T06:03:52;15.10;;;7.18;;
33022;SDS011;19390;51.460;5.710;2022-10-22T06:06:20;17.13;;;10.25;;
33022;SDS011;19390;51.460;5.710;2022-10-22T06:09:02;14.85;;;7.32;;
33022;SDS011;19390;51.460;5.710;2022-10-22T06:11:29;18.95;;;9.57;;
33022;SDS011;19390;51.460;5.710;2022-10-22T06:13:55;14.88;;;7.53;;
33022;SDS011;19390;51.460;5.710;2022-10-22T06:16:20;16.00;;;7.68;;
33022;SDS011;19390;51.460;5.710;2022-10-22T06:18:46;21.13;;;9.90;;
33022;SDS011;19390;51.460;5.710;2022-10-22T06:21:12;20.88;;;9.35;;
33022;SDS011;19390;51.460;5.710;2022-10-22T06:23:39;12.38;;;7.60;;
33022;SDS011;19390;51.460;5.710;2022-10-22T06:26:06;20.02;;;7.55;;
33022;SDS011;19390;51.460;5.710;2022-10-22T06:28:33;20.42;;;6.00;;
33022;SDS011;19390;51.460;5.710;2022-10-22T06:31:00;10.38;;;4.70;;
33022;SDS011;19390;51.460;5.710;2022-10-22T06:33:27;12.70;;;4.85;;
33022;SDS011;19390;51.460;5.710;2022-10-22T06:35:53;14.35;;;5.03;;
33022;SDS011;19390;51.460;5.710;2022-10-22T06:38:19;17.80;;;5.60;;
33022;SDS011;19390;51.460;5.710;2022-10-22T06:40:45;15.43;;;4.75;;
33022;SDS011;19390;51.460;5.710;2022-10-22T06:43:11;11.27;;;4.63;;
33022;SDS011;19390;51.460;5.710;2022-10-22T06:45:37;15.85;;;4.45;;
33022;SDS011;19390;51.460;5.710;2022-10-22T06:48:03;14.82;;;4.15;;
33022;SDS011;19390;51.460;5.710;2022-10-22T06:50:29;11.77;;;4.28;;
33022;SDS011;19390;51.460;5.710;2022-10-22T06:52:56;15.45;;;4.10;;
33022;SDS011;19390;51.460;5.710;2022-10-22T06:55:22;13.93;;;4.20;;
33022;SDS011;19390;51.460;5.710;2022-10-22T06:57:47;10.13;;;3.60;;
33022;SDS011;19390;51.460;5.710;2022-10-22T07:00:13;16.38;;;4.07;;
33022;SDS011;19390;51.460;5.710;2022-10-22T07:02:39;12.15;;;3.33;;
33022;SDS011;19390;51.460;5.710;2022-10-22T07:05:04;9.68;;;3.83;;
33022;SDS011;19390;51.460;5.710;2022-10-22T07:07:30;10.43;;;3.17;;
33022;SDS011;19390;51.460;5.710;2022-10-22T07:09:56;13.63;;;3.13;;
33022;SDS011;19390;51.460;5.710;2022-10-22T07:12:22;9.88;;;2.80;;
33022;SDS011;19390;51.460;5.710;2022-10-22T07:14:47;12.32;;;3.65;;
33022;SDS011;19390;51.460;5.710;2022-10-22T07:17:13;11.68;;;2.72;;
33022;SDS011;19390;51.460;5.710;2022-10-22T07:19:39;12.77;;;3.80;;
33022;SDS011;19390;51.460;5.710;2022-10-22T07:22:05;9.18;;;3.10;;
33022;SDS011;19390;51.460;5.710;2022-10-22T07:24:30;9.98;;;2.67;;
33022;SDS011;19390;51.460;5.710;2022-10-22T07:26:56;6.80;;;2.92;;
33022;SDS011;19390;51.460;5.710;2022-10-22T07:29:21;11.52;;;3.10;;
33022;SDS011;19390;51.460;5.710;2022-10-22T07:31:47;9.40;;;2.70;;
33022;SDS011;19390;51.460;5.710;2022-10-22T07:34:13;21.48;;;2.63;;
33022;SDS011;19390;51.460;5.710;2022-10-22T07:36:39;10.70;;;3.20;;
33022;SDS011;19390;51.460;5.710;2022-10-22T07:39:04;12.20;;;2.85;;
33022;SDS011;19390;51.460;5.710;2022-10-22T07:41:30;16.95;;;3.65;;
33022;SDS011;19390;51.460;5.710;2022-10-22T07:43:56;7.53;;;2.58;;
33022;SDS011;19390;51.460;5.710;2022-10-22T07:46:22;12.13;;;2.58;;
33022;SDS011;19390;51.460;5.710;2022-10-22T07:48:48;11.82;;;2.38;;
33022;SDS011;19390;51.460;5.710;2022-10-22T07:51:14;11.68;;;2.42;;
33022;SDS011;19390;51.460;5.710;2022-10-22T07:53:40;11.25;;;2.90;;
33022;SDS011;19390;51.460;5.710;2022-10-22T07:56:06;12.35;;;2.63;;
33022;SDS011;19390;51.460;5.710;2022-10-22T07:58:31;12.93;;;2.53;;
33022;SDS011;19390;51.460;5.710;2022-10-22T08:00:58;13.65;;;2.70;;
33022;SDS011;19390;51.460;5.710;2022-10-22T08:03:25;11.30;;;2.65;;
33022;SDS011;19390;51.460;5.710;2022-10-22T08:05:51;9.55;;;2.20;;
33022;SDS011;19390;51.460;5.710;2022-10-22T08:08:18;11.65;;;2.90;;
33022;SDS011;19390;51.460;5.710;2022-10-22T08:10:45;11.00;;;2.50;;
33022;SDS011;19390;51.460;5.710;2022-10-22T08:13:11;11.68;;;2.35;;
33022;SDS011;19390;51.460;5.710;2022-10-22T08:15:37;11.55;;;2.40;;
33022;SDS011;19390;51.460;5.710;2022-10-22T08:18:02;15.05;;;3.17;;
33022;SDS011;19390;51.460;5.710;2022-10-22T08:20:28;10.73;;;2.42;;
33022;SDS011;19390;51.460;5.710;2022-10-22T08:22:54;8.63;;;2.50;;
33022;SDS011;19390;51.460;5.710;2022-10-22T08:25:20;10.00;;;2.10;;
33022;SDS011;19390;51.460;5.710;2022-10-22T08:27:45;10.13;;;2.13;;
33022;SDS011;19390;51.460;5.710;2022-10-22T08:30:11;8.25;;;2.00;;
33022;SDS011;19390;51.460;5.710;2022-10-22T08:32:38;9.07;;;1.80;;
33022;SDS011;19390;51.460;5.710;2022-10-22T08:35:04;12.13;;;2.08;;
33022;SDS011;19390;51.460;5.710;2022-10-22T08:37:30;10.73;;;1.90;;
33022;SDS011;19390;51.460;5.710;2022-10-22T08:39:56;9.15;;;1.95;;
33022;SDS011;19390;51.460;5.710;2022-10-22T08:42:35;7.65;;;1.63;;
33022;SDS011;19390;51.460;5.710;2022-10-22T08:48:18;8.38;;;1.90;;
33022;SDS011;19390;51.460;5.710;2022-10-22T08:50:53;9.97;;;2.10;;
33022;SDS011;19390;51.460;5.710;2022-10-22T08:53:22;9.65;;;1.92;;
33022;SDS011;19390;51.460;5.710;2022-10-22T08:55:53;8.98;;;2.42;;
33022;SDS011;19390;51.460;5.710;2022-10-22T08:58:24;9.45;;;2.33;;
33022;SDS011;19390;51.460;5.710;2022-10-22T09:01:04;12.20;;;1.98;;
33022;SDS011;19390;51.460;5.710;2022-10-22T09:06:17;11.98;;;2.03;;
33022;SDS011;19390;51.460;5.710;2022-10-22T09:08:44;5.63;;;1.80;;
33022;SDS011;19390;51.460;5.710;2022-10-22T09:13:36;11.40;;;2.08;;
33022;SDS011;19390;51.460;5.710;2022-10-22T09:16:13;9.50;;;2.03;;
33022;SDS011;19390;51.460;5.710;2022-10-22T09:18:47;11.88;;;2.20;;
33022;SDS011;19390;51.460;5.710;2022-10-22T09:27:11;10.10;;;2.20;;
33022;SDS011;19390;51.460;5.710;2022-10-22T09:29:42;8.60;;;1.98;;
33022;SDS011;19390;51.460;5.710;2022-10-22T09:32:08;9.35;;;1.70;;
33022;SDS011;19390;51.460;5.710;2022-10-22T09:34:34;9.10;;;1.83;;
33022;SDS011;19390;51.460;5.710;2022-10-22T09:37:02;14.60;;;3.03;;
33022;SDS011;19390;51.460;5.710;2022-10-22T09:41:58;9.32;;;2.20;;
33022;SDS011;19390;51.460;5.710;2022-10-22T09:44:24;7.57;;;1.55;;
33022;SDS011;19390;51.460;5.710;2022-10-22T09:46:50;7.88;;;1.95;;
33022;SDS011;19390;51.460;5.710;2022-10-22T09:49:16;5.18;;;1.65;;
33022;SDS011;19390;51.460;5.710;2022-10-22T09:54:24;10.27;;;1.85;;
33022;SDS011;19390;51.460;5.710;2022-10-22T09:57:03;9.85;;;1.73;;
33022;SDS011;19390;51.460;5.710;2022-10-22T09:59:31;11.65;;;2.17;;
33022;SDS011;19390;51.460;5.710;2022-10-22T10:02:03;6.53;;;1.67;;
33022;SDS011;19390;51.460;5.710;2022-10-22T10:04:46;10.57;;;2.03;;
33022;SDS011;19390;51.460;5.710;2022-10-22T10:07:21;9.80;;;1.98;;
33022;SDS011;19390;51.460;5.710;2022-10-22T10:09:48;8.02;;;1.88;;
33022;SDS011;19390;51.460;5.710;2022-10-22T10:18:42;6.88;;;1.90;;
33022;SDS011;19390;51.460;5.710;2022-10-22T10:24:12;13.82;;;2.03;;
33022;SDS011;19390;51.460;5.710;2022-10-22T10:26:45;8.90;;;2.28;;
33022;SDS011;19390;51.460;5.710;2022-10-22T10:29:30;13.20;;;1.80;;
33022;SDS011;19390;51.460;5.710;2022-10-22T10:38:02;6.88;;;1.52;;
33022;SDS011;19390;51.460;5.710;2022-10-22T10:40:41;8.25;;;1.90;;
33022;SDS011;19390;51.460;5.710;2022-10-22T10:43:10;11.32;;;2.17;;
33022;SDS011;19390;51.460;5.710;2022-10-22T11:02:12;10.13;;;1.92;;
33022;SDS011;19390;51.460;5.710;2022-10-22T11:07:44;8.07;;;2.10;;
33022;SDS011;19390;51.460;5.710;2022-10-22T11:13:18;9.80;;;1.85;;
33022;SDS011;19390;51.460;5.710;2022-10-22T11:15:51;6.38;;;1.77;;
33022;SDS011;19390;51.460;5.710;2022-10-22T11:18:47;7.70;;;1.88;;
33022;SDS011;19390;51.460;5.710;2022-10-22T11:21:35;5.95;;;1.90;;
33022;SDS011;19390;51.460;5.710;2022-10-22T11:24:17;15.55;;;2.40;;
33022;SDS011;19390;51.460;5.710;2022-10-22T11:29:26;8.75;;;1.50;;
33022;SDS011;19390;51.460;5.710;2022-10-22T11:31:57;8.90;;;1.80;;
33022;SDS011;19390;51.460;5.710;2022-10-22T11:34:25;9.15;;;2.00;;
33022;SDS011;19390;51.460;5.710;2022-10-22T11:36:57;10.20;;;2.03;;
33022;SDS011;19390;51.460;5.710;2022-10-22T11:39:33;8.07;;;2.00;;
33022;SDS011;19390;51.460;5.710;2022-10-22T11:42:08;9.23;;;2.22;;
33022;SDS011;19390;51.460;5.710;2022-10-22T11:47:33;10.25;;;1.65;;
33022;SDS011;19390;51.460;5.710;2022-10-22T11:50:43;8.13;;;1.70;;
33022;SDS011;19390;51.460;5.710;2022-10-22T11:55:42;10.68;;;1.85;;
33022;SDS011;19390;51.460;5.710;2022-10-22T12:06:05;10.38;;;1.95;;
33022;SDS011;19390;51.460;5.710;2022-10-22T12:11:40;7.97;;;1.83;;
33022;SDS011;19390;51.460;5.710;2022-10-22T12:19:24;7.60;;;1.55;;
33022;SDS011;19390;51.460;5.710;2022-10-22T12:21:57;10.20;;;2.05;;
33022;SDS011;19390;51.460;5.710;2022-10-22T12:24:28;9.25;;;1.98;;
33022;SDS011;19390;51.460;5.710;2022-10-22T12:26:58;6.93;;;2.05;;
33022;SDS011;19390;51.460;5.710;2022-10-22T12:29:23;8.43;;;1.77;;
33022;SDS011;19390;51.460;5.710;2022-10-22T12:31:50;11.43;;;2.22;;
33022;SDS011;19390;51.460;5.710;2022-10-22T12:34:17;9.68;;;1.85;;
33022;SDS011;19390;51.460;5.710;2022-10-22T12:36:47;9.43;;;1.90;;
33022;SDS011;19390;51.460;5.710;2022-10-22T12:39:18;8.77;;;1.80;;
33022;SDS011;19390;51.460;5.710;2022-10-22T12:41:46;7.68;;;1.50;;
33022;SDS011;19390;51.460;5.710;2022-10-22T12:44:13;11.52;;;1.83;;
33022;SDS011;19390;51.460;5.710;2022-10-22T12:46:41;6.22;;;1.80;;
33022;SDS011;19390;51.460;5.710;2022-10-22T12:49:21;8.70;;;2.00;;
33022;SDS011;19390;51.460;5.710;2022-10-22T12:51:59;7.90;;;2.15;;
33022;SDS011;19390;51.460;5.710;2022-10-22T12:54:30;15.85;;;3.03;;
33022;SDS011;19390;51.460;5.710;2022-10-22T12:56:57;8.90;;;2.00;;
33022;SDS011;19390;51.460;5.710;2022-10-22T12:59:25;7.03;;;1.58;;
33022;SDS011;19390;51.460;5.710;2022-10-22T13:01:58;6.30;;;1.48;;
33022;SDS011;19390;51.460;5.710;2022-10-22T13:09:39;9.23;;;1.75;;
33022;SDS011;19390;51.460;5.710;2022-10-22T13:12:08;6.57;;;1.52;;
33022;SDS011;19390;51.460;5.710;2022-10-22T13:14:40;6.78;;;1.65;;
33022;SDS011;19390;51.460;5.710;2022-10-22T13:17:13;7.28;;;1.30;;
33022;SDS011;19390;51.460;5.710;2022-10-22T13:20:00;7.03;;;2.00;;
33022;SDS011;19390;51.460;5.710;2022-10-22T13:24:58;6.53;;;1.77;;
33022;SDS011;19390;51.460;5.710;2022-10-22T13:27:43;8.88;;;1.85;;
33022;SDS011;19390;51.460;5.710;2022-10-22T13:30:24;7.05;;;1.73;;
33022;SDS011;19390;51.460;5.710;2022-10-22T13:32:53;6.78;;;1.55;;
33022;SDS011;19390;51.460;5.710;2022-10-22T13:35:25;13.43;;;2.30;;
33022;SDS011;19390;51.460;5.710;2022-10-22T13:37:53;6.10;;;1.38;;
33022;SDS011;19390;51.460;5.710;2022-10-22T13:40:19;8.27;;;1.55;;
33022;SDS011;19390;51.460;5.710;2022-10-22T13:42:45;6.78;;;1.52;;
33022;SDS011;19390;51.460;5.710;2022-10-22T13:45:11;7.57;;;1.60;;
33022;SDS011;19390;51.460;5.710;2022-10-22T13:47:38;5.50;;;1.55;;
33022;SDS011;19390;51.460;5.710;2022-10-22T13:50:15;8.70;;;1.70;;
33022;SDS011;19390;51.460;5.710;2022-10-22T13:52:43;7.43;;;1.38;;
33022;SDS011;19390;51.460;5.710;2022-10-22T13:55:19;6.25;;;1.50;;
33022;SDS011;19390;51.460;5.710;2022-10-22T13:57:51;6.75;;;1.45;;
33022;SDS011;19390;51.460;5.710;2022-10-22T14:00:20;5.70;;;1.20;;
33022;SDS011;19390;51.460;5.710;2022-10-22T14:02:47;5.90;;;1.73;;
33022;SDS011;19390;51.460;5.710;2022-10-22T14:05:16;6.47;;;1.77;;
33022;SDS011;19390;51.460;5.710;2022-10-22T14:07:42;8.30;;;1.50;;
33022;SDS011;19390;51.460;5.710;2022-10-22T14:10:13;6.72;;;1.60;;
33022;SDS011;19390;51.460;5.710;2022-10-22T14:12:41;11.80;;;2.40;;
33022;SDS011;19390;51.460;5.710;2022-10-22T14:15:07;5.68;;;1.90;;
33022;SDS011;19390;51.460;5.710;2022-10-22T14:17:36;7.45;;;1.65;;
33022;SDS011;19390;51.460;5.710;2022-10-22T14:20:03;5.68;;;1.60;;
33022;SDS011;19390;51.460;5.710;2022-10-22T14:22:28;7.85;;;1.58;;
33022;SDS011;19390;51.460;5.710;2022-10-22T14:24:54;8.45;;;1.75;;
33022;SDS011;19390;51.460;5.710;2022-10-22T14:27:20;6.28;;;1.63;;
33022;SDS011;19390;51.460;5.710;2022-10-22T14:29:46;5.97;;;1.23;;
33022;SDS011;19390;51.460;5.710;2022-10-22T14:32:12;8.25;;;1.63;;
33022;SDS011;19390;51.460;5.710;2022-10-22T14:34:40;5.95;;;1.50;;
33022;SDS011;19390;51.460;5.710;2022-10-22T14:37:16;7.18;;;1.67;;
33022;SDS011;19390;51.460;5.710;2022-10-22T14:39:44;6.53;;;1.13;;
33022;SDS011;19390;51.460;5.710;2022-10-22T14:42:15;7.20;;;1.27;;
33022;SDS011;19390;51.460;5.710;2022-10-22T14:44:42;6.43;;;1.35;;
33022;SDS011;19390;51.460;5.710;2022-10-22T14:47:08;4.53;;;1.27;;
33022;SDS011;19390;51.460;5.710;2022-10-22T14:49:33;5.82;;;1.42;;
33022;SDS011;19390;51.460;5.710;2022-10-22T14:51:59;6.40;;;1.13;;
33022;SDS011;19390;51.460;5.710;2022-10-22T14:54:25;3.63;;;0.95;;
33022;SDS011;19390;51.460;5.710;2022-10-22T14:56:50;6.07;;;1.60;;
33022;SDS011;19390;51.460;5.710;2022-10-22T14:59:16;7.00;;;1.33;;
33022;SDS011;19390;51.460;5.710;2022-10-22T15:01:41;5.13;;;1.40;;
33022;SDS011;19390;51.460;5.710;2022-10-22T15:04:07;7.10;;;1.48;;
33022;SDS011;19390;51.460;5.710;2022-10-22T15:06:33;6.00;;;1.10;;
33022;SDS011;19390;51.460;5.710;2022-10-22T15:09:00;5.68;;;1.33;;
33022;SDS011;19390;51.460;5.710;2022-10-22T15:11:25;7.22;;;1.83;;
33022;SDS011;19390;51.460;5.710;2022-10-22T15:13:51;8.55;;;2.70;;
33022;SDS011;19390;51.460;5.710;2022-10-22T15:16:17;5.60;;;1.60;;
33022;SDS011;19390;51.460;5.710;2022-10-22T15:18:43;6.05;;;1.65;;
33022;SDS011;19390;51.460;5.710;2022-10-22T15:21:13;7.72;;;1.10;;
33022;SDS011;19390;51.460;5.710;2022-10-22T15:23:41;6.83;;;1.60;;
33022;SDS011;19390;51.460;5.710;2022-10-22T15:26:07;9.55;;;1.63;;
33022;SDS011;19390;51.460;5.710;2022-10-22T15:28:34;5.80;;;1.58;;
33022;SDS011;19390;51.460;5.710;2022-10-22T15:31:01;5.70;;;1.63;;
33022;SDS011;19390;51.460;5.710;2022-10-22T15:33:27;11.65;;;1.52;;
33022;SDS011;19390;51.460;5.710;2022-10-22T15:35:54;7.82;;;1.67;;
33022;SDS011;19390;51.460;5.710;2022-10-22T15:38:21;14.32;;;1.60;;
33022;SDS011;19390;51.460;5.710;2022-10-22T15:40:58;7.53;;;1.50;;
33022;SDS011;19390;51.460;5.710;2022-10-22T15:43:35;7.50;;;2.15;;
33022;SDS011;19390;51.460;5.710;2022-10-22T15:46:14;5.35;;;1.60;;
33022;SDS011;19390;51.460;5.710;2022-10-22T15:48:41;9.77;;;1.77;;
33022;SDS011;19390;51.460;5.710;2022-10-22T15:51:08;8.07;;;1.70;;
33022;SDS011;19390;51.460;5.710;2022-10-22T15:53:39;6.63;;;1.80;;
33022;SDS011;19390;51.460;5.710;2022-10-22T15:56:05;4.68;;;1.60;;
33022;SDS011;19390;51.460;5.710;2022-10-22T15:58:31;6.70;;;1.30;;
33022;SDS011;19390;51.460;5.710;2022-10-22T16:01:08;7.13;;;1.52;;
33022;SDS011;19390;51.460;5.710;2022-10-22T16:03:35;7.03;;;1.48;;
33022;SDS011;19390;51.460;5.710;2022-10-22T16:06:02;7.93;;;1.58;;
33022;SDS011;19390;51.460;5.710;2022-10-22T16:08:28;11.02;;;1.63;;
33022;SDS011;19390;51.460;5.710;2022-10-22T16:10:54;9.80;;;1.55;;
33022;SDS011;19390;51.460;5.710;2022-10-22T16:13:20;12.55;;;1.85;;
33022;SDS011;19390;51.460;5.710;2022-10-22T16:15:47;7.47;;;1.40;;
33022;SDS011;19390;51.460;5.710;2022-10-22T16:18:13;10.48;;;1.80;;
33022;SDS011;19390;51.460;5.710;2022-10-22T16:20:40;7.07;;;1.63;;
33022;SDS011;19390;51.460;5.710;2022-10-22T16:23:05;8.02;;;1.92;;
33022;SDS011;19390;51.460;5.710;2022-10-22T16:25:37;9.90;;;1.70;;
33022;SDS011;19390;51.460;5.710;2022-10-22T16:28:07;7.32;;;1.85;;
33022;SDS011;19390;51.460;5.710;2022-10-22T16:30:33;7.13;;;2.08;;